sensor_id;sensor_type;location;lat;lon;timestamp;P1;durP1;ratioP1;P2;durP2;ratioP2
19599;SDS011;9947;57.722;12.012;2022-07-23T00:00:43;20.43;;;6.60;;
19599;SDS011;9947;57.722;12.012;2022-07-23T00:03:10;20.17;;;6.47;;
19599;SDS011;9947;57.722;12.012;2022-07-23T00:05:36;19.57;;;6.07;;
19599;SDS011;9947;57.722;12.012;2022-07-23T00:08:03;18.23;;;6.70;;
19599;SDS011;9947;57.722;12.012;2022-07-23T00:10:31;13.00;;;5.80;;
19599;SDS011;9947;57.722;12.012;2022-07-23T00:12:58;19.17;;;5.63;;
19599;SDS011;9947;57.722;12.012;2022-07-23T00:15:26;15.33;;;6.00;;
19599;SDS011;9947;57.722;12.012;2022-07-23T00:17:53;18.77;;;7.03;;
19599;SDS011;9947;57.722;12.012;2022-07-23T00:20:20;14.70;;;5.43;;
19599;SDS011;9947;57.722;12.012;2022-07-23T00:22:46;16.13;;;5.90;;
19599;SDS011;9947;57.722;12.012;2022-07-23T00:25:13;14.87;;;6.10;;
19599;SDS011;9947;57.722;12.012;2022-07-23T00:27:40;13.07;;;5.10;;
19599;SDS011;9947;57.722;12.012;2022-07-23T00:30:08;12.20;;;4.80;;
19599;SDS011;9947;57.722;12.012;2022-07-23T00:32:45;11.40;;;4.10;;
19599;SDS011;9947;57.722;12.012;2022-07-23T00:35:13;10.93;;;4.37;;
19599;SDS011;9947;57.722;12.012;2022-07-23T00:37:39;8.57;;;3.47;;
19599;SDS011;9947;57.722;12.012;2022-07-23T00:40:07;11.13;;;3.80;;
19599;SDS011;9947;57.722;12.012;2022-07-23T00:42:35;10.90;;;3.97;;
19599;SDS011;9947;57.722;12.012;2022-07-23T00:45:02;11.07;;;3.70;;
19599;SDS011;9947;57.722;12.012;2022-07-23T00:47:29;7.83;;;3.60;;
19599;SDS011;9947;57.722;12.012;2022-07-23T00:49:58;9.93;;;3.67;;
19599;SDS011;9947;57.722;12.012;2022-07-23T00:52:25;5.23;;;3.17;;
19599;SDS011;9947;57.722;12.012;2022-07-23T00:54:52;10.47;;;3.23;;
19599;SDS011;9947;57.722;12.012;2022-07-23T00:57:18;4.67;;;2.53;;
19599;SDS011;9947;57.722;12.012;2022-07-23T00:59:45;5.40;;;2.77;;
19599;SDS011;9947;57.722;12.012;2022-07-23T01:02:12;5.87;;;2.30;;
19599;SDS011;9947;57.722;12.012;2022-07-23T01:04:39;3.67;;;2.43;;
19599;SDS011;9947;57.722;12.012;2022-07-23T01:07:07;3.87;;;2.50;;
19599;SDS011;9947;57.722;12.012;2022-07-23T01:09:34;4.17;;;2.20;;
19599;SDS011;9947;57.722;12.012;2022-07-23T01:12:01;3.83;;;2.00;;
19599;SDS011;9947;57.722;12.012;2022-07-23T01:14:30;3.30;;;2.00;;
19599;SDS011;9947;57.722;12.012;2022-07-23T01:16:57;1.80;;;1.70;;
19599;SDS011;9947;57.722;12.012;2022-07-23T01:19:23;2.03;;;1.90;;
19599;SDS011;9947;57.722;12.012;2022-07-23T01:21:51;2.13;;;1.93;;
19599;SDS011;9947;57.722;12.012;2022-07-23T01:24:21;1.90;;;1.80;;
19599;SDS011;9947;57.722;12.012;2022-07-23T01:26:48;3.17;;;1.40;;
19599;SDS011;9947;57.722;12.012;2022-07-23T01:29:15;2.63;;;1.60;;
19599;SDS011;9947;57.722;12.012;2022-07-23T01:31:43;1.90;;;1.50;;
19599;SDS011;9947;57.722;12.012;2022-07-23T01:34:11;1.60;;;1.47;;
19599;SDS011;9947;57.722;12.012;2022-07-23T01:36:38;1.93;;;1.40;;
19599;SDS011;9947;57.722;12.012;2022-07-23T01:39:06;2.67;;;1.47;;
19599;SDS011;9947;57.722;12.012;2022-07-23T01:41:34;2.60;;;1.50;;
19599;SDS011;9947;57.722;12.012;2022-07-23T01:44:01;2.13;;;1.40;;
19599;SDS011;9947;57.722;12.012;2022-07-23T01:46:28;1.30;;;1.20;;
19599;SDS011;9947;57.722;12.012;2022-07-23T01:48:55;1.50;;;1.40;;
19599;SDS011;9947;57.722;12.012;2022-07-23T01:51:21;2.00;;;1.40;;
19599;SDS011;9947;57.722;12.012;2022-07-23T01:53:48;2.83;;;1.30;;
19599;SDS011;9947;57.722;12.012;2022-07-23T01:56:15;5.20;;;1.30;;
19599;SDS011;9947;57.722;12.012;2022-07-23T01:58:45;2.10;;;1.47;;
19599;SDS011;9947;57.722;12.012;2022-07-23T02:01:12;1.77;;;1.30;;
19599;SDS011;9947;57.722;12.012;2022-07-23T02:03:38;2.00;;;1.30;;
19599;SDS011;9947;57.722;12.012;2022-07-23T02:06:08;2.47;;;1.30;;
19599;SDS011;9947;57.722;12.012;2022-07-23T02:08:35;1.93;;;1.10;;
19599;SDS011;9947;57.722;12.012;2022-07-23T02:11:02;1.73;;;1.20;;
19599;SDS011;9947;57.722;12.012;2022-07-23T02:13:28;1.30;;;1.20;;
19599;SDS011;9947;57.722;12.012;2022-07-23T02:15:57;1.20;;;1.20;;
19599;SDS011;9947;57.722;12.012;2022-07-23T02:18:23;1.27;;;1.17;;
19599;SDS011;9947;57.722;12.012;2022-07-23T02:20:50;1.10;;;1.10;;
19599;SDS011;9947;57.722;12.012;2022-07-23T02:23:17;1.20;;;1.20;;
19599;SDS011;9947;57.722;12.012;2022-07-23T02:25:44;1.43;;;1.33;;
19599;SDS011;9947;57.722;12.012;2022-07-23T02:28:11;1.40;;;1.30;;
19599;SDS011;9947;57.722;12.012;2022-07-23T02:30:37;1.33;;;1.30;;
19599;SDS011;9947;57.722;12.012;2022-07-23T02:33:06;1.10;;;1.10;;
19599;SDS011;9947;57.722;12.012;2022-07-23T02:35:33;1.30;;;1.20;;
19599;SDS011;9947;57.722;12.012;2022-07-23T02:37:59;2.60;;;1.80;;
19599;SDS011;9947;57.722;12.012;2022-07-23T02:40:26;1.97;;;1.20;;
19599;SDS011;9947;57.722;12.012;2022-07-23T02:42:53;1.50;;;1.43;;
19599;SDS011;9947;57.722;12.012;2022-07-23T02:45:20;1.77;;;1.30;;
19599;SDS011;9947;57.722;12.012;2022-07-23T02:47:47;1.40;;;1.30;;
19599;SDS011;9947;57.722;12.012;2022-07-23T02:50:17;1.50;;;1.30;;
19599;SDS011;9947;57.722;12.012;2022-07-23T02:52:44;1.63;;;1.50;;
19599;SDS011;9947;57.722;12.012;2022-07-23T02:55:11;1.73;;;1.63;;
19599;SDS011;9947;57.722;12.012;2022-07-23T02:57:37;1.70;;;1.60;;
19599;SDS011;9947;57.722;12.012;2022-07-23T03:00:05;2.07;;;1.90;;
19599;SDS011;9947;57.722;12.012;2022-07-23T03:02:33;2.63;;;1.70;;
19599;SDS011;9947;57.722;12.012;2022-07-23T03:05:00;2.43;;;2.17;;
19599;SDS011;9947;57.722;12.012;2022-07-23T03:07:28;2.10;;;2.00;;
19599;SDS011;9947;57.722;12.012;2022-07-23T03:09:55;3.33;;;1.90;;
19599;SDS011;9947;57.722;12.012;2022-07-23T03:12:22;2.10;;;1.90;;
19599;SDS011;9947;57.722;12.012;2022-07-23T03:14:49;2.97;;;1.80;;
19599;SDS011;9947;57.722;12.012;2022-07-23T03:17:16;3.20;;;2.20;;
19599;SDS011;9947;57.722;12.012;2022-07-23T03:19:43;2.30;;;1.90;;
19599;SDS011;9947;57.722;12.012;2022-07-23T03:22:09;2.17;;;1.97;;
19599;SDS011;9947;57.722;12.012;2022-07-23T03:24:38;3.03;;;1.90;;
19599;SDS011;9947;57.722;12.012;2022-07-23T03:27:19;2.10;;;1.90;;
19599;SDS011;9947;57.722;12.012;2022-07-23T03:29:46;3.07;;;1.93;;
19599;SDS011;9947;57.722;12.012;2022-07-23T03:32:13;3.30;;;2.07;;
19599;SDS011;9947;57.722;12.012;2022-07-23T03:34:40;2.00;;;1.90;;
19599;SDS011;9947;57.722;12.012;2022-07-23T03:37:07;2.17;;;1.80;;
19599;SDS011;9947;57.722;12.012;2022-07-23T03:39:33;1.90;;;1.67;;
19599;SDS011;9947;57.722;12.012;2022-07-23T03:42:03;2.10;;;1.90;;
19599;SDS011;9947;57.722;12.012;2022-07-23T03:44:30;1.83;;;1.73;;
19599;SDS011;9947;57.722;12.012;2022-07-23T03:46:56;4.07;;;1.90;;
19599;SDS011;9947;57.722;12.012;2022-07-23T03:49:23;2.40;;;1.77;;
19599;SDS011;9947;57.722;12.012;2022-07-23T03:51:50;2.37;;;1.80;;
19599;SDS011;9947;57.722;12.012;2022-07-23T03:54:17;1.90;;;1.80;;
19599;SDS011;9947;57.722;12.012;2022-07-23T03:56:44;1.97;;;1.87;;
19599;SDS011;9947;57.722;12.012;2022-07-23T03:59:12;1.80;;;1.70;;
19599;SDS011;9947;57.722;12.012;2022-07-23T04:01:39;1.93;;;1.77;;
19599;SDS011;9947;57.722;12.012;2022-07-23T04:04:06;2.00;;;1.80;;
19599;SDS011;9947;57.722;12.012;2022-07-23T04:06:34;4.10;;;1.70;;
19599;SDS011;9947;57.722;12.012;2022-07-23T04:09:02;3.57;;;1.90;;
19599;SDS011;9947;57.722;12.012;2022-07-23T04:11:29;2.27;;;1.77;;
19599;SDS011;9947;57.722;12.012;2022-07-23T04:13:56;2.60;;;1.70;;
19599;SDS011;9947;57.722;12.012;2022-07-23T04:16:24;2.30;;;1.50;;
19599;SDS011;9947;57.722;12.012;2022-07-23T04:18:51;1.60;;;1.50;;
19599;SDS011;9947;57.722;12.012;2022-07-23T04:21:18;1.17;;;1.17;;
19599;SDS011;9947;57.722;12.012;2022-07-23T04:23:45;1.50;;;1.40;;
19599;SDS011;9947;57.722;12.012;2022-07-23T04:26:13;1.50;;;1.40;;
19599;SDS011;9947;57.722;12.012;2022-07-23T04:28:40;1.50;;;1.40;;
19599;SDS011;9947;57.722;12.012;2022-07-23T04:31:07;1.30;;;1.20;;
19599;SDS011;9947;57.722;12.012;2022-07-23T04:33:35;1.80;;;1.70;;
19599;SDS011;9947;57.722;12.012;2022-07-23T04:36:02;1.57;;;1.47;;
19599;SDS011;9947;57.722;12.012;2022-07-23T04:38:29;1.87;;;1.60;;
19599;SDS011;9947;57.722;12.012;2022-07-23T04:40:57;1.70;;;1.60;;
19599;SDS011;9947;57.722;12.012;2022-07-23T04:43:24;1.60;;;1.50;;
19599;SDS011;9947;57.722;12.012;2022-07-23T04:45:51;1.83;;;1.60;;
19599;SDS011;9947;57.722;12.012;2022-07-23T04:48:17;2.70;;;1.70;;
19599;SDS011;9947;57.722;12.012;2022-07-23T04:50:46;2.00;;;1.90;;
19599;SDS011;9947;57.722;12.012;2022-07-23T04:53:12;2.03;;;1.47;;
19599;SDS011;9947;57.722;12.012;2022-07-23T04:55:39;2.30;;;1.73;;
19599;SDS011;9947;57.722;12.012;2022-07-23T04:58:06;1.60;;;1.50;;
19599;SDS011;9947;57.722;12.012;2022-07-23T05:00:33;1.77;;;1.63;;
19599;SDS011;9947;57.722;12.012;2022-07-23T05:03:00;1.80;;;1.70;;
19599;SDS011;9947;57.722;12.012;2022-07-23T05:05:28;2.40;;;1.70;;
19599;SDS011;9947;57.722;12.012;2022-07-23T05:07:56;1.60;;;1.50;;
19599;SDS011;9947;57.722;12.012;2022-07-23T05:10:23;1.57;;;1.40;;
19599;SDS011;9947;57.722;12.012;2022-07-23T05:12:50;2.73;;;1.50;;
19599;SDS011;9947;57.722;12.012;2022-07-23T05:15:17;2.00;;;1.40;;
19599;SDS011;9947;57.722;12.012;2022-07-23T05:17:43;1.40;;;1.30;;
19599;SDS011;9947;57.722;12.012;2022-07-23T05:20:10;1.73;;;1.40;;
19599;SDS011;9947;57.722;12.012;2022-07-23T05:22:38;1.30;;;1.30;;
19599;SDS011;9947;57.722;12.012;2022-07-23T05:25:07;1.50;;;1.40;;
19599;SDS011;9947;57.722;12.012;2022-07-23T05:27:34;2.40;;;1.33;;
19599;SDS011;9947;57.722;12.012;2022-07-23T05:30:01;1.63;;;1.30;;
19599;SDS011;9947;57.722;12.012;2022-07-23T05:32:28;2.70;;;1.30;;
19599;SDS011;9947;57.722;12.012;2022-07-23T05:34:57;1.37;;;1.27;;
19599;SDS011;9947;57.722;12.012;2022-07-23T05:37:25;1.57;;;1.47;;
19599;SDS011;9947;57.722;12.012;2022-07-23T05:39:51;1.87;;;1.47;;
19599;SDS011;9947;57.722;12.012;2022-07-23T05:42:22;1.30;;;1.30;;
19599;SDS011;9947;57.722;12.012;2022-07-23T05:44:49;1.33;;;1.23;;
19599;SDS011;9947;57.722;12.012;2022-07-23T05:47:16;1.43;;;1.30;;
19599;SDS011;9947;57.722;12.012;2022-07-23T05:49:43;1.23;;;1.13;;
19599;SDS011;9947;57.722;12.012;2022-07-23T05:52:10;1.10;;;1.10;;
19599;SDS011;9947;57.722;12.012;2022-07-23T05:54:37;1.60;;;1.50;;
19599;SDS011;9947;57.722;12.012;2022-07-23T05:57:03;1.30;;;1.20;;
19599;SDS011;9947;57.722;12.012;2022-07-23T05:59:32;3.60;;;1.27;;
19599;SDS011;9947;57.722;12.012;2022-07-23T06:01:58;1.27;;;1.17;;
19599;SDS011;9947;57.722;12.012;2022-07-23T06:04:29;1.40;;;1.30;;
19599;SDS011;9947;57.722;12.012;2022-07-23T06:06:56;2.83;;;1.30;;
19599;SDS011;9947;57.722;12.012;2022-07-23T06:09:22;1.40;;;1.30;;
19599;SDS011;9947;57.722;12.012;2022-07-23T06:11:49;1.20;;;1.10;;
19599;SDS011;9947;57.722;12.012;2022-07-23T06:14:16;1.27;;;1.20;;
19599;SDS011;9947;57.722;12.012;2022-07-23T06:16:44;1.53;;;1.40;;
19599;SDS011;9947;57.722;12.012;2022-07-23T06:19:11;1.57;;;1.40;;
19599;SDS011;9947;57.722;12.012;2022-07-23T06:21:39;1.10;;;1.10;;
19599;SDS011;9947;57.722;12.012;2022-07-23T06:24:06;1.40;;;1.00;;
19599;SDS011;9947;57.722;12.012;2022-07-23T06:26:33;0.93;;;0.90;;
19599;SDS011;9947;57.722;12.012;2022-07-23T06:29:00;1.60;;;1.00;;
19599;SDS011;9947;57.722;12.012;2022-07-23T06:31:26;1.57;;;1.10;;
19599;SDS011;9947;57.722;12.012;2022-07-23T06:33:55;2.47;;;1.10;;
19599;SDS011;9947;57.722;12.012;2022-07-23T06:36:22;1.67;;;1.07;;
19599;SDS011;9947;57.722;12.012;2022-07-23T06:38:48;1.20;;;1.10;;
19599;SDS011;9947;57.722;12.012;2022-07-23T06:41:15;1.10;;;1.10;;
19599;SDS011;9947;57.722;12.012;2022-07-23T06:43:42;1.20;;;1.10;;
19599;SDS011;9947;57.722;12.012;2022-07-23T06:46:09;1.50;;;1.10;;
19599;SDS011;9947;57.722;12.012;2022-07-23T06:48:36;1.40;;;1.30;;
19599;SDS011;9947;57.722;12.012;2022-07-23T06:51:07;1.50;;;1.40;;
19599;SDS011;9947;57.722;12.012;2022-07-23T06:53:34;2.57;;;1.20;;
19599;SDS011;9947;57.722;12.012;2022-07-23T06:56:01;1.43;;;1.30;;
19599;SDS011;9947;57.722;12.012;2022-07-23T06:58:29;1.67;;;1.57;;
19599;SDS011;9947;57.722;12.012;2022-07-23T07:00:56;1.40;;;1.30;;
19599;SDS011;9947;57.722;12.012;2022-07-23T07:03:22;1.40;;;1.30;;
19599;SDS011;9947;57.722;12.012;2022-07-23T07:05:49;1.60;;;1.40;;
19599;SDS011;9947;57.722;12.012;2022-07-23T07:08:18;2.73;;;1.40;;
19599;SDS011;9947;57.722;12.012;2022-07-23T07:10:45;1.70;;;1.60;;
19599;SDS011;9947;57.722;12.012;2022-07-23T07:13:12;2.33;;;1.57;;
19599;SDS011;9947;57.722;12.012;2022-07-23T07:15:40;1.70;;;1.60;;
19599;SDS011;9947;57.722;12.012;2022-07-23T07:18:07;1.77;;;1.50;;
19599;SDS011;9947;57.722;12.012;2022-07-23T07:20:34;1.47;;;1.37;;
19599;SDS011;9947;57.722;12.012;2022-07-23T07:23:01;1.70;;;1.60;;
19599;SDS011;9947;57.722;12.012;2022-07-23T07:25:29;3.30;;;1.57;;
19599;SDS011;9947;57.722;12.012;2022-07-23T07:27:56;2.10;;;1.47;;
19599;SDS011;9947;57.722;12.012;2022-07-23T07:30:23;1.40;;;1.30;;
19599;SDS011;9947;57.722;12.012;2022-07-23T07:32:50;1.47;;;1.37;;
19599;SDS011;9947;57.722;12.012;2022-07-23T07:35:17;2.30;;;1.30;;
19599;SDS011;9947;57.722;12.012;2022-07-23T07:37:43;1.40;;;1.30;;
19599;SDS011;9947;57.722;12.012;2022-07-23T07:40:10;2.33;;;1.50;;
19599;SDS011;9947;57.722;12.012;2022-07-23T07:42:45;1.83;;;1.30;;
19599;SDS011;9947;57.722;12.012;2022-07-23T07:45:12;1.60;;;1.30;;
19599;SDS011;9947;57.722;12.012;2022-07-23T07:47:39;2.23;;;1.20;;
19599;SDS011;9947;57.722;12.012;2022-07-23T07:50:06;1.53;;;1.43;;
19599;SDS011;9947;57.722;12.012;2022-07-23T07:52:34;1.30;;;1.30;;
19599;SDS011;9947;57.722;12.012;2022-07-23T07:55:01;1.87;;;1.20;;
19599;SDS011;9947;57.722;12.012;2022-07-23T07:57:28;1.30;;;1.20;;
19599;SDS011;9947;57.722;12.012;2022-07-23T07:59:56;1.53;;;1.43;;
19599;SDS011;9947;57.722;12.012;2022-07-23T08:02:23;1.40;;;1.30;;
19599;SDS011;9947;57.722;12.012;2022-07-23T08:04:50;4.27;;;1.40;;
19599;SDS011;9947;57.722;12.012;2022-07-23T08:07:17;1.40;;;1.30;;
19599;SDS011;9947;57.722;12.012;2022-07-23T08:09:45;4.43;;;1.43;;
19599;SDS011;9947;57.722;12.012;2022-07-23T08:12:12;2.40;;;1.53;;
19599;SDS011;9947;57.722;12.012;2022-07-23T08:14:39;1.57;;;1.10;;
19599;SDS011;9947;57.722;12.012;2022-07-23T08:17:07;1.27;;;1.27;;
19599;SDS011;9947;57.722;12.012;2022-07-23T08:19:34;2.03;;;1.03;;
19599;SDS011;9947;57.722;12.012;2022-07-23T08:22:00;1.37;;;1.30;;
19599;SDS011;9947;57.722;12.012;2022-07-23T08:24:30;1.33;;;1.20;;
19599;SDS011;9947;57.722;12.012;2022-07-23T08:26:56;1.20;;;1.10;;
19599;SDS011;9947;57.722;12.012;2022-07-23T08:29:23;1.57;;;1.47;;
19599;SDS011;9947;57.722;12.012;2022-07-23T08:31:50;2.40;;;1.33;;
19599;SDS011;9947;57.722;12.012;2022-07-23T08:34:18;1.37;;;1.30;;
19599;SDS011;9947;57.722;12.012;2022-07-23T08:36:45;1.40;;;1.30;;
19599;SDS011;9947;57.722;12.012;2022-07-23T08:39:11;1.40;;;1.30;;
19599;SDS011;9947;57.722;12.012;2022-07-23T08:41:39;1.67;;;1.50;;
19599;SDS011;9947;57.722;12.012;2022-07-23T08:44:07;2.03;;;1.43;;
19599;SDS011;9947;57.722;12.012;2022-07-23T08:46:34;1.40;;;1.30;;
19599;SDS011;9947;57.722;12.012;2022-07-23T08:49:02;1.30;;;1.30;;
19599;SDS011;9947;57.722;12.012;2022-07-23T08:51:31;1.20;;;1.20;;
19599;SDS011;9947;57.722;12.012;2022-07-23T08:53:58;2.60;;;1.10;;
19599;SDS011;9947;57.722;12.012;2022-07-23T08:56:27;2.63;;;1.30;;
19599;SDS011;9947;57.722;12.012;2022-07-23T08:58:54;1.30;;;1.20;;
19599;SDS011;9947;57.722;12.012;2022-07-23T09:01:21;2.03;;;1.27;;
19599;SDS011;9947;57.722;12.012;2022-07-23T09:03:47;3.07;;;2.30;;
19599;SDS011;9947;57.722;12.012;2022-07-23T09:06:14;9.93;;;4.73;;
19599;SDS011;9947;57.722;12.012;2022-07-23T09:08:43;4.27;;;2.10;;
19599;SDS011;9947;57.722;12.012;2022-07-23T09:11:11;4.70;;;1.67;;
19599;SDS011;9947;57.722;12.012;2022-07-23T09:13:41;1.43;;;1.33;;
19599;SDS011;9947;57.722;12.012;2022-07-23T09:16:12;1.47;;;1.30;;
19599;SDS011;9947;57.722;12.012;2022-07-23T09:18:41;1.23;;;1.23;;
19599;SDS011;9947;57.722;12.012;2022-07-23T09:21:20;2.20;;;1.10;;
19599;SDS011;9947;57.722;12.012;2022-07-23T09:23:52;1.43;;;1.00;;
19599;SDS011;9947;57.722;12.012;2022-07-23T09:26:30;1.10;;;1.00;;
19599;SDS011;9947;57.722;12.012;2022-07-23T09:29:02;1.17;;;1.13;;
19599;SDS011;9947;57.722;12.012;2022-07-23T09:31:34;0.97;;;0.97;;
19599;SDS011;9947;57.722;12.012;2022-07-23T09:34:13;1.13;;;1.13;;
19599;SDS011;9947;57.722;12.012;2022-07-23T09:36:43;1.37;;;0.93;;
19599;SDS011;9947;57.722;12.012;2022-07-23T09:39:12;1.40;;;1.30;;
19599;SDS011;9947;57.722;12.012;2022-07-23T09:41:41;1.50;;;0.93;;
19599;SDS011;9947;57.722;12.012;2022-07-23T09:44:11;0.90;;;0.90;;
19599;SDS011;9947;57.722;12.012;2022-07-23T09:46:41;0.93;;;0.93;;
19599;SDS011;9947;57.722;12.012;2022-07-23T09:49:13;1.00;;;0.90;;
19599;SDS011;9947;57.722;12.012;2022-07-23T09:51:44;0.90;;;0.90;;
19599;SDS011;9947;57.722;12.012;2022-07-23T09:54:24;1.10;;;1.00;;
19599;SDS011;9947;57.722;12.012;2022-07-23T09:56:57;1.80;;;0.90;;
19599;SDS011;9947;57.722;12.012;2022-07-23T09:59:26;1.03;;;1.00;;
19599;SDS011;9947;57.722;12.012;2022-07-23T10:01:56;0.93;;;0.93;;
19599;SDS011;9947;57.722;12.012;2022-07-23T10:04:25;3.23;;;1.20;;
19599;SDS011;9947;57.722;12.012;2022-07-23T10:06:53;1.00;;;1.00;;
19599;SDS011;9947;57.722;12.012;2022-07-23T10:09:24;1.07;;;1.00;;
19599;SDS011;9947;57.722;12.012;2022-07-23T10:11:53;1.07;;;1.07;;
19599;SDS011;9947;57.722;12.012;2022-07-23T10:14:25;1.93;;;1.07;;
19599;SDS011;9947;57.722;12.012;2022-07-23T10:16:52;1.03;;;0.90;;
19599;SDS011;9947;57.722;12.012;2022-07-23T10:19:19;1.10;;;1.10;;
19599;SDS011;9947;57.722;12.012;2022-07-23T10:21:47;3.00;;;1.00;;
19599;SDS011;9947;57.722;12.012;2022-07-23T10:24:20;0.90;;;0.90;;
19599;SDS011;9947;57.722;12.012;2022-07-23T10:26:58;0.90;;;0.90;;
19599;SDS011;9947;57.722;12.012;2022-07-23T10:29:39;0.90;;;0.90;;
19599;SDS011;9947;57.722;12.012;2022-07-23T10:32:17;1.23;;;1.23;;
19599;SDS011;9947;57.722;12.012;2022-07-23T10:34:58;1.00;;;1.00;;
19599;SDS011;9947;57.722;12.012;2022-07-23T10:37:37;1.10;;;1.00;;
19599;SDS011;9947;57.722;12.012;2022-07-23T10:40:10;0.83;;;0.83;;
19599;SDS011;9947;57.722;12.012;2022-07-23T10:42:39;0.90;;;0.90;;
19599;SDS011;9947;57.722;12.012;2022-07-23T10:47:49;1.07;;;1.07;;
19599;SDS011;9947;57.722;12.012;2022-07-23T10:50:20;2.03;;;1.30;;
19599;SDS011;9947;57.722;12.012;2022-07-23T10:53:10;1.10;;;1.10;;
19599;SDS011;9947;57.722;12.012;2022-07-23T10:55:41;1.20;;;1.10;;
19599;SDS011;9947;57.722;12.012;2022-07-23T10:58:10;1.17;;;1.07;;
19599;SDS011;9947;57.722;12.012;2022-07-23T11:00:38;1.20;;;1.10;;
19599;SDS011;9947;57.722;12.012;2022-07-23T11:03:06;1.03;;;1.00;;
19599;SDS011;9947;57.722;12.012;2022-07-23T11:06:00;1.23;;;1.20;;
19599;SDS011;9947;57.722;12.012;2022-07-23T11:08:27;1.20;;;1.20;;
19599;SDS011;9947;57.722;12.012;2022-07-23T11:11:07;1.10;;;1.10;;
19599;SDS011;9947;57.722;12.012;2022-07-23T11:13:40;2.03;;;1.13;;
19599;SDS011;9947;57.722;12.012;2022-07-23T11:16:23;1.10;;;1.10;;
19599;SDS011;9947;57.722;12.012;2022-07-23T11:18:55;1.10;;;1.00;;
19599;SDS011;9947;57.722;12.012;2022-07-23T11:21:41;1.10;;;1.10;;
19599;SDS011;9947;57.722;12.012;2022-07-23T11:24:09;1.30;;;1.20;;
19599;SDS011;9947;57.722;12.012;2022-07-23T11:26:53;1.20;;;1.10;;
19599;SDS011;9947;57.722;12.012;2022-07-23T11:29:38;2.80;;;1.33;;
19599;SDS011;9947;57.722;12.012;2022-07-23T11:32:18;1.40;;;1.30;;
19599;SDS011;9947;57.722;12.012;2022-07-23T11:34:49;2.10;;;1.90;;
19599;SDS011;9947;57.722;12.012;2022-07-23T11:37:27;2.00;;;1.80;;
19599;SDS011;9947;57.722;12.012;2022-07-23T11:39:57;2.27;;;1.87;;
19599;SDS011;9947;57.722;12.012;2022-07-23T11:42:27;6.33;;;2.23;;
19599;SDS011;9947;57.722;12.012;2022-07-23T11:44:54;4.17;;;2.43;;
19599;SDS011;9947;57.722;12.012;2022-07-23T11:47:23;4.17;;;1.90;;
19599;SDS011;9947;57.722;12.012;2022-07-23T11:49:52;3.20;;;2.07;;
19599;SDS011;9947;57.722;12.012;2022-07-23T11:52:23;2.20;;;1.80;;
19599;SDS011;9947;57.722;12.012;2022-07-23T11:54:56;1.80;;;1.70;;
19599;SDS011;9947;57.722;12.012;2022-07-23T11:57:46;1.90;;;1.67;;
19599;SDS011;9947;57.722;12.012;2022-07-23T12:00:24;2.03;;;1.60;;
19599;SDS011;9947;57.722;12.012;2022-07-23T12:02:55;1.70;;;1.60;;
19599;SDS011;9947;57.722;12.012;2022-07-23T12:05:28;1.63;;;1.50;;
19599;SDS011;9947;57.722;12.012;2022-07-23T12:07:57;1.73;;;1.63;;
19599;SDS011;9947;57.722;12.012;2022-07-23T12:10:25;1.70;;;1.50;;
19599;SDS011;9947;57.722;12.012;2022-07-23T12:12:56;2.07;;;1.60;;
19599;SDS011;9947;57.722;12.012;2022-07-23T12:15:24;4.00;;;1.80;;
19599;SDS011;9947;57.722;12.012;2022-07-23T12:17:56;4.67;;;1.87;;
19599;SDS011;9947;57.722;12.012;2022-07-23T12:20:25;1.70;;;1.60;;
19599;SDS011;9947;57.722;12.012;2022-07-23T12:22:56;2.53;;;1.70;;
19599;SDS011;9947;57.722;12.012;2022-07-23T12:25:25;1.70;;;1.60;;
19599;SDS011;9947;57.722;12.012;2022-07-23T12:27:59;1.97;;;1.53;;
19599;SDS011;9947;57.722;12.012;2022-07-23T12:30:30;3.57;;;1.33;;
19599;SDS011;9947;57.722;12.012;2022-07-23T12:33:07;2.60;;;1.63;;
19599;SDS011;9947;57.722;12.012;2022-07-23T12:35:38;1.50;;;1.40;;
19599;SDS011;9947;57.722;12.012;2022-07-23T12:38:09;2.22;;;1.50;;
19599;SDS011;9947;57.722;12.012;2022-07-23T12:40:45;1.38;;;1.27;;
19599;SDS011;9947;57.722;12.012;2022-07-23T12:43:26;2.33;;;1.70;;
19599;SDS011;9947;57.722;12.012;2022-07-23T12:45:55;4.25;;;1.70;;
19599;SDS011;9947;57.722;12.012;2022-07-23T12:48:25;2.75;;;1.85;;
19599;SDS011;9947;57.722;12.012;2022-07-23T12:50:56;3.50;;;1.95;;
19599;SDS011;9947;57.722;12.012;2022-07-23T12:53:37;1.75;;;1.50;;
19599;SDS011;9947;57.722;12.012;2022-07-23T12:56:06;1.93;;;1.50;;
19599;SDS011;9947;57.722;12.012;2022-07-23T12:58:43;1.53;;;1.43;;
19599;SDS011;9947;57.722;12.012;2022-07-23T13:01:22;1.80;;;1.70;;
19599;SDS011;9947;57.722;12.012;2022-07-23T13:03:55;2.80;;;1.80;;
19599;SDS011;9947;57.722;12.012;2022-07-23T13:06:27;3.10;;;2.10;;
19599;SDS011;9947;57.722;12.012;2022-07-23T13:08:55;3.53;;;1.70;;
19599;SDS011;9947;57.722;12.012;2022-07-23T13:11:25;3.40;;;1.80;;
19599;SDS011;9947;57.722;12.012;2022-07-23T13:14:01;1.90;;;1.70;;
19599;SDS011;9947;57.722;12.012;2022-07-23T13:16:28;1.67;;;1.57;;
19599;SDS011;9947;57.722;12.012;2022-07-23T13:19:00;2.17;;;1.97;;
19599;SDS011;9947;57.722;12.012;2022-07-23T13:21:27;2.87;;;1.60;;
19599;SDS011;9947;57.722;12.012;2022-07-23T13:23:55;1.63;;;1.53;;
19599;SDS011;9947;57.722;12.012;2022-07-23T13:26:22;1.67;;;1.57;;
19599;SDS011;9947;57.722;12.012;2022-07-23T13:28:49;2.13;;;1.63;;
19599;SDS011;9947;57.722;12.012;2022-07-23T13:31:18;1.63;;;1.50;;
19599;SDS011;9947;57.722;12.012;2022-07-23T13:33:45;1.90;;;1.80;;
19599;SDS011;9947;57.722;12.012;2022-07-23T13:36:14;1.87;;;1.70;;
19599;SDS011;9947;57.722;12.012;2022-07-23T13:38:41;1.57;;;1.47;;
19599;SDS011;9947;57.722;12.012;2022-07-23T13:41:08;2.43;;;1.67;;
19599;SDS011;9947;57.722;12.012;2022-07-23T13:43:35;2.80;;;2.60;;
19599;SDS011;9947;57.722;12.012;2022-07-23T13:46:02;2.30;;;1.90;;
19599;SDS011;9947;57.722;12.012;2022-07-23T13:48:30;1.50;;;1.40;;
19599;SDS011;9947;57.722;12.012;2022-07-23T13:50:57;1.90;;;1.80;;
19599;SDS011;9947;57.722;12.012;2022-07-23T13:53:24;1.67;;;1.57;;
19599;SDS011;9947;57.722;12.012;2022-07-23T13:55:51;1.77;;;1.67;;
19599;SDS011;9947;57.722;12.012;2022-07-23T13:58:19;1.93;;;1.80;;
19599;SDS011;9947;57.722;12.012;2022-07-23T14:00:48;1.80;;;1.70;;
19599;SDS011;9947;57.722;12.012;2022-07-23T14:03:19;3.43;;;1.80;;
19599;SDS011;9947;57.722;12.012;2022-07-23T14:05:49;1.87;;;1.77;;
19599;SDS011;9947;57.722;12.012;2022-07-23T14:08:16;5.30;;;1.97;;
19599;SDS011;9947;57.722;12.012;2022-07-23T14:10:42;2.27;;;1.80;;
19599;SDS011;9947;57.722;12.012;2022-07-23T14:13:09;1.80;;;1.70;;
19599;SDS011;9947;57.722;12.012;2022-07-23T14:15:36;2.23;;;2.10;;
19599;SDS011;9947;57.722;12.012;2022-07-23T14:18:05;2.27;;;2.00;;
19599;SDS011;9947;57.722;12.012;2022-07-23T14:20:32;2.70;;;2.20;;
19599;SDS011;9947;57.722;12.012;2022-07-23T14:23:00;2.00;;;1.90;;
19599;SDS011;9947;57.722;12.012;2022-07-23T14:25:28;1.90;;;1.70;;
19599;SDS011;9947;57.722;12.012;2022-07-23T14:27:55;1.77;;;1.67;;
19599;SDS011;9947;57.722;12.012;2022-07-23T14:30:24;2.07;;;1.90;;
19599;SDS011;9947;57.722;12.012;2022-07-23T14:32:51;3.60;;;2.07;;
19599;SDS011;9947;57.722;12.012;2022-07-23T14:35:17;1.90;;;1.80;;
19599;SDS011;9947;57.722;12.012;2022-07-23T14:37:45;1.80;;;1.70;;
19599;SDS011;9947;57.722;12.012;2022-07-23T14:40:13;1.80;;;1.70;;
19599;SDS011;9947;57.722;12.012;2022-07-23T14:42:40;2.07;;;1.97;;
19599;SDS011;9947;57.722;12.012;2022-07-23T14:45:07;1.90;;;1.80;;
19599;SDS011;9947;57.722;12.012;2022-07-23T14:47:34;3.40;;;1.90;;
19599;SDS011;9947;57.722;12.012;2022-07-23T14:50:01;2.27;;;2.07;;
19599;SDS011;9947;57.722;12.012;2022-07-23T14:52:28;2.33;;;1.57;;
19599;SDS011;9947;57.722;12.012;2022-07-23T14:54:54;2.00;;;1.90;;
19599;SDS011;9947;57.722;12.012;2022-07-23T14:57:23;2.67;;;1.85;;
19599;SDS011;9947;57.722;12.012;2022-07-23T14:59:49;1.90;;;1.80;;